Time;durP1;ratioP1;P1;durP2;ratioP2;P2;SDS_P1;SDS_P2;PMS_P1;PMS_P2;Temp;Humidity;BMP_temperature;BMP_pressure;BME280_temperature;BME280_humidity;BME280_pressure;Samples;Min_cycle;Max_cycle;Signal;HPM_P1;HPM_P2
2022/03/29 00:02:14;;;;;;;21.83;15.17;;;8.50;99.90;;;;;;4947237;28;20234;-62
2022/03/29 00:04:42;;;;;;;24.27;16.23;;;8.50;99.90;;;;;;4963656;28;20253;-63
2022/03/29 00:07:09;;;;;;;21.07;16.03;;;8.40;99.90;;;;;;4952865;28;20199;-63
2022/03/29 00:09:36;;;;;;;21.53;15.57;;;8.40;99.90;;;;;;4962499;28;20203;-63
2022/03/29 00:12:06;;;;;;;21.27;14.90;;;8.40;99.90;;;;;;4962081;28;20210;-63
2022/03/29 00:14:33;;;;;;;26.80;15.30;;;8.40;99.90;;;;;;4963506;28;20212;-63
2022/03/29 00:17:02;;;;;;;22.23;14.93;;;8.50;99.90;;;;;;4976791;28;20208;-63
2022/03/29 00:19:29;;;;;;;25.00;16.13;;;8.50;99.90;;;;;;4962043;28;20222;-62
2022/03/29 00:21:56;;;;;;;27.20;18.10;;;8.40;99.90;;;;;;4977525;28;20234;-63
2022/03/29 00:24:25;;;;;;;27.03;18.13;;;8.40;1.00;;;;;;4961613;28;20914;-64
2022/03/29 00:26:52;;;;;;;29.07;19.30;;;8.40;1.00;;;;;;4963405;28;20262;-63
2022/03/29 00:29:20;;;;;;;23.87;18.17;;;8.40;1.00;;;;;;4954099;28;21014;-61
2022/03/29 00:31:50;;;;;;;27.43;18.30;;;8.40;1.00;;;;;;4958508;28;20653;-61
2022/03/29 00:34:17;;;;;;;27.03;18.50;;;8.40;1.00;;;;;;4962182;28;20221;-63
2022/03/29 00:36:46;;;;;;;27.13;19.37;;;8.40;1.00;;;;;;4961709;28;20801;-63
2022/03/29 00:39:13;;;;;;;28.03;19.17;;;8.40;1.00;;;;;;4948848;28;20254;-63
2022/03/29 00:41:40;;;;;;;29.20;18.97;;;8.40;1.00;;;;;;4966794;28;20229;-63
2022/03/29 00:44:07;;;;;;;25.57;17.97;;;8.40;1.00;;;;;;4964024;28;20207;-63
2022/03/29 00:46:34;;;;;;;27.07;18.57;;;8.40;1.00;;;;;;4962405;28;20940;-63
2022/03/29 00:49:09;;;;;;;31.73;20.20;;;8.40;1.00;;;;;;4968274;28;20286;-63
2022/03/29 00:51:36;;;;;;;28.83;19.90;;;8.40;1.00;;;;;;4976888;28;20289;-63
2022/03/29 00:54:10;;;;;;;26.47;20.33;;;8.30;1.00;;;;;;4967607;28;20260;-63
2022/03/29 00:56:40;;;;;;;27.93;21.13;;;8.30;1.00;;;;;;4976876;28;20317;-62
2022/03/29 00:59:06;;;;;;;28.73;21.40;;;8.20;1.00;;;;;;4960864;28;20293;-63
2022/03/29 01:01:34;;;;;;;30.53;21.20;;;8.10;1.00;;;;;;4977697;28;20262;-63
2022/03/29 01:04:02;;;;;;;27.87;21.57;;;8.10;1.00;;;;;;4952351;28;20211;-63
2022/03/29 01:06:29;;;;;;;31.03;21.43;;;8.10;1.00;;;;;;4961423;28;20230;-63
2022/03/29 01:08:55;;;;;;;34.40;22.80;;;8.20;1.00;;;;;;4962330;28;20199;-63
2022/03/29 01:11:23;;;;;;;30.43;21.37;;;8.20;1.00;;;;;;4977710;28;20277;-63
2022/03/29 01:13:52;;;;;;;34.17;22.77;;;8.10;1.00;;;;;;4961526;28;20526;-63
2022/03/29 01:19:09;;;;;;;29.33;22.33;;;8.00;1.00;;;;;;4978219;28;20202;-63
2022/03/29 01:21:39;;;;;;;31.27;22.47;;;8.00;1.00;;;;;;4981347;28;20269;-63
2022/03/29 01:24:09;;;;;;;31.70;23.20;;;8.00;1.00;;;;;;4965089;28;20210;-63
2022/03/29 01:26:36;;;;;;;34.47;22.10;;;8.00;1.00;;;;;;4966625;28;20333;-62
2022/03/29 01:29:03;;;;;;;32.97;23.00;;;8.00;1.00;;;;;;4966720;28;20217;-63
2022/03/29 01:31:34;;;;;;;33.57;23.93;;;8.00;1.00;;;;;;4978399;28;20201;-62
2022/03/29 01:34:05;;;;;;;36.57;23.73;;;8.00;1.00;;;;;;4976983;28;20202;-62
2022/03/29 01:36:32;;;;;;;32.17;22.97;;;7.90;1.00;;;;;;4966172;28;20210;-62
2022/03/29 01:39:01;;;;;;;31.93;23.73;;;7.90;1.00;;;;;;4970009;28;20198;-62
2022/03/29 01:41:28;;;;;;;36.77;25.27;;;7.90;1.00;;;;;;4969176;28;20202;-62
2022/03/29 01:43:55;;;;;;;48.30;31.37;;;7.90;3.70;;;;;;4983559;28;20225;-62
2022/03/29 01:46:22;;;;;;;45.10;30.47;;;7.80;98.60;;;;;;4969016;28;20896;-62
2022/03/29 01:48:49;;;;;;;44.87;29.80;;;7.90;80.30;;;;;;4973926;28;20202;-62
2022/03/29 01:51:16;;;;;;;42.33;27.13;;;7.80;97.50;;;;;;4985659;28;20209;-62
2022/03/29 01:53:46;;;;;;;39.27;26.27;;;7.80;79.40;;;;;;4972976;28;20233;-62
2022/03/29 01:56:15;;;;;;;43.17;28.10;;;7.90;58.90;;;;;;4982424;28;20205;-64
2022/03/29 01:58:42;;;;;;;42.40;27.73;;;7.90;75.90;;;;;;4984896;28;20209;-63
2022/03/29 02:01:09;;;;;;;37.10;25.60;;;7.90;61.70;;;;;;4972506;28;20257;-63
2022/03/29 02:03:36;;;;;;;41.43;27.20;;;7.90;99.90;;;;;;4985755;28;20185;-63
2022/03/29 02:06:08;;;;;;;33.57;24.67;;;7.90;99.90;;;;;;4982796;28;20201;-63
2022/03/29 02:08:35;;;;;;;37.60;26.60;;;7.90;99.90;;;;;;4984666;28;20293;-62
2022/03/29 02:11:02;;;;;;;36.60;26.17;;;7.90;99.90;;;;;;4972573;28;20245;-62
2022/03/29 02:13:29;;;;;;;36.07;26.07;;;7.80;99.90;;;;;;4966854;28;20332;-62
2022/03/29 02:15:56;;;;;;;38.00;26.10;;;7.80;99.90;;;;;;4974146;28;20229;-63
2022/03/29 02:18:23;;;;;;;37.57;26.77;;;7.90;99.90;;;;;;4968354;28;20253;-62
2022/03/29 02:20:49;;;;;;;40.70;26.43;;;7.80;99.90;;;;;;4984209;28;20207;-62
2022/03/29 02:23:18;;;;;;;34.70;25.73;;;7.70;99.90;;;;;;4984925;28;20312;-62
2022/03/29 02:25:46;;;;;;;37.27;26.27;;;7.70;99.90;;;;;;4984135;28;20202;-62
2022/03/29 02:28:14;;;;;;;37.73;27.07;;;7.60;99.90;;;;;;4971552;28;20684;-63
2022/03/29 02:30:41;;;;;;;36.80;28.07;;;7.70;99.90;;;;;;4973074;28;20256;-63
2022/03/29 02:33:12;;;;;;;38.20;27.40;;;7.70;99.90;;;;;;4963181;28;20205;-63
2022/03/29 02:35:39;;;;;;;41.47;27.47;;;7.70;99.90;;;;;;4974938;28;20278;-63
2022/03/29 02:38:07;;;;;;;40.27;28.27;;;7.60;99.90;;;;;;4968334;28;20205;-62
2022/03/29 02:40:36;;;;;;;36.10;27.53;;;7.50;99.90;;;;;;4965138;28;20238;-62
2022/03/29 02:43:03;;;;;;;40.57;27.60;;;7.50;99.90;;;;;;4969324;28;20689;-62
2022/03/29 02:45:36;;;;;;;39.70;29.10;;;7.40;1.00;;;;;;4949399;28;20202;-63
2022/03/29 02:48:05;;;;;;;39.83;29.23;;;7.40;1.00;;;;;;4964001;28;20199;-62
2022/03/29 02:50:33;;;;;;;40.30;29.57;;;7.30;1.00;;;;;;4947680;28;20203;-63
2022/03/29 02:53:02;;;;;;;39.93;29.13;;;7.20;1.00;;;;;;4966025;28;20221;-62
2022/03/29 02:55:32;;;;;;;43.83;30.43;;;7.20;1.00;;;;;;4979549;28;20195;-62
2022/03/29 02:58:02;;;;;;;38.67;29.13;;;7.20;1.00;;;;;;4961728;28;20605;-63
2022/03/29 03:00:31;;;;;;;40.97;29.27;;;7.10;1.00;;;;;;4952047;28;20198;-63
2022/03/29 03:02:59;;;;;;;40.57;28.77;;;7.10;1.00;;;;;;4962551;28;20700;-63
2022/03/29 03:05:26;;;;;;;39.83;29.70;;;7.10;1.00;;;;;;4964003;28;20242;-63
2022/03/29 03:07:54;;;;;;;39.43;29.20;;;7.10;1.00;;;;;;4971961;28;20218;-63
2022/03/29 03:10:21;;;;;;;41.17;30.27;;;7.00;1.00;;;;;;4980307;28;20205;-63
2022/03/29 03:12:49;;;;;;;42.30;30.10;;;7.00;1.00;;;;;;4961958;28;20273;-63
2022/03/29 03:15:26;;;;;;;40.77;29.87;;;7.10;1.00;;;;;;4963419;28;20606;-63
2022/03/29 03:17:54;;;;;;;44.50;30.73;;;7.10;1.00;;;;;;4965153;28;20191;-64
2022/03/29 03:20:22;;;;;;;39.00;29.87;;;7.00;1.00;;;;;;4963349;28;20294;-63
2022/03/29 03:22:50;;;;;;;41.80;30.23;;;6.90;99.90;;;;;;4963482;28;20217;-63
2022/03/29 03:25:20;;;;;;;40.50;30.53;;;6.90;99.90;;;;;;4978561;28;20253;-63
2022/03/29 03:27:49;;;;;;;43.50;31.47;;;6.80;99.90;;;;;;4969449;28;20206;-63
2022/03/29 03:30:17;;;;;;;42.60;32.37;;;6.80;99.90;;;;;;4960347;28;20713;-63
2022/03/29 03:32:49;;;;;;;43.87;31.00;;;6.80;99.90;;;;;;4943113;28;20234;-63
2022/03/29 03:35:17;;;;;;;43.27;31.70;;;6.80;99.90;;;;;;4945931;28;20233;-63
2022/03/29 03:37:48;;;;;;;42.70;30.37;;;6.80;99.90;;;;;;4962909;28;20638;-62
2022/03/29 03:40:20;;;;;;;41.37;30.87;;;6.70;99.90;;;;;;4961312;28;21194;-62
2022/03/29 03:42:49;;;;;;;41.40;30.53;;;6.70;99.90;;;;;;4944864;28;20218;-62
2022/03/29 03:45:16;;;;;;;44.97;32.80;;;6.70;99.90;;;;;;4977011;28;20294;-62
2022/03/29 03:47:46;;;;;;;48.63;33.20;;;6.70;99.90;;;;;;4963313;28;20216;-63
2022/03/29 03:50:13;;;;;;;45.77;32.40;;;6.70;99.90;;;;;;4977138;28;20741;-62
2022/03/29 03:52:40;;;;;;;46.20;33.30;;;6.70;99.90;;;;;;4962284;28;21050;-63
2022/03/29 03:55:10;;;;;;;49.83;32.70;;;6.70;99.90;;;;;;4961636;28;20674;-63
2022/03/29 03:57:37;;;;;;;45.13;32.30;;;6.70;99.90;;;;;;4977564;28;20265;-63
2022/03/29 04:00:06;;;;;;;45.47;32.93;;;6.60;99.90;;;;;;4963026;28;20199;-63
2022/03/29 04:02:39;;;;;;;42.57;32.60;;;6.60;99.90;;;;;;4964665;28;20194;-64
2022/03/29 04:05:13;;;;;;;45.03;33.10;;;6.60;99.90;;;;;;4967624;28;20211;-64
2022/03/29 04:07:41;;;;;;;45.80;32.53;;;6.50;99.90;;;;;;4948186;28;20210;-64
2022/03/29 04:10:11;;;;;;;51.43;33.43;;;6.50;99.90;;;;;;4963703;28;20337;-64
2022/03/29 04:12:38;;;;;;;44.47;32.40;;;6.50;99.90;;;;;;4978029;28;21040;-65
2022/03/29 04:15:06;;;;;;;46.10;32.97;;;6.40;1.00;;;;;;4966261;28;20226;-65
2022/03/29 04:17:32;;;;;;;48.50;34.13;;;6.40;1.00;;;;;;4963626;28;20274;-64
2022/03/29 04:20:01;;;;;;;49.17;34.17;;;6.50;1.00;;;;;;4974409;28;21205;-64
2022/03/29 04:22:28;;;;;;;47.53;34.10;;;6.40;1.00;;;;;;4961645;28;20317;-64
2022/03/29 04:24:55;;;;;;;52.63;35.27;;;6.50;1.00;;;;;;4961475;28;20233;-64
2022/03/29 04:27:24;;;;;;;47.43;34.53;;;6.50;1.00;;;;;;4979299;28;20286;-65
2022/03/29 04:29:51;;;;;;;46.37;33.70;;;6.60;99.90;;;;;;4977781;28;20214;-65
2022/03/29 04:32:18;;;;;;;48.83;34.37;;;6.60;99.90;;;;;;4961130;28;20265;-65
2022/03/29 04:34:48;;;;;;;46.80;33.63;;;6.70;99.90;;;;;;4966982;28;20615;-64
2022/03/29 04:37:15;;;;;;;47.53;34.13;;;6.60;99.90;;;;;;4961197;28;20207;-65
2022/03/29 04:39:44;;;;;;;45.73;33.87;;;6.70;99.90;;;;;;4964998;28;20842;-65
2022/03/29 04:42:11;;;;;;;52.43;33.77;;;6.80;99.90;;;;;;4944745;28;22084;-65
2022/03/29 04:44:43;;;;;;;50.90;33.93;;;6.70;99.90;;;;;;4957350;28;20248;-65
2022/03/29 04:47:12;;;;;;;46.30;32.77;;;6.70;99.90;;;;;;4960767;28;20629;-65
2022/03/29 04:49:42;;;;;;;48.50;34.60;;;6.80;99.90;;;;;;4959813;28;20237;-62
2022/03/29 04:52:14;;;;;;;45.63;34.03;;;6.80;99.90;;;;;;4957414;28;20233;-63
2022/03/29 04:54:43;;;;;;;49.90;34.17;;;6.80;99.90;;;;;;4973996;28;20294;-63
2022/03/29 04:57:10;;;;;;;49.73;34.73;;;6.90;99.90;;;;;;4975120;28;20763;-63
2022/03/29 04:59:36;;;;;;;53.83;34.87;;;6.90;97.40;;;;;;4962199;28;20248;-63
2022/03/29 05:02:04;;;;;;;51.47;36.70;;;6.80;99.90;;;;;;4995942;28;20566;-62
2022/03/29 05:04:31;;;;;;;50.70;34.97;;;6.80;99.90;;;;;;4976418;28;20198;-62
2022/03/29 05:06:57;;;;;;;52.13;37.13;;;6.80;99.90;;;;;;4959693;28;20199;-65
2022/03/29 05:09:24;;;;;;;49.43;36.10;;;6.90;99.90;;;;;;4960990;28;20747;-64
2022/03/29 05:11:51;;;;;;;52.27;36.13;;;7.00;99.90;;;;;;4967164;28;20707;-63
2022/03/29 05:14:18;;;;;;;54.50;38.30;;;7.10;19.60;;;;;;4976012;28;20281;-63
2022/03/29 05:16:45;;;;;;;52.63;35.50;;;7.10;1.00;;;;;;4959551;28;20237;-62
2022/03/29 05:19:12;;;;;;;50.00;35.00;;;7.20;1.00;;;;;;4968037;28;20206;-63
2022/03/29 05:21:39;;;;;;;53.97;36.30;;;7.00;1.00;;;;;;4968077;28;20772;-63
2022/03/29 05:24:06;;;;;;;59.57;37.47;;;7.00;19.30;;;;;;4961495;28;20203;-63
2022/03/29 05:26:33;;;;;;;58.03;37.00;;;6.90;99.90;;;;;;4977219;28;20202;-63
2022/03/29 05:29:03;;;;;;;56.17;37.70;;;6.90;99.90;;;;;;4960208;28;20244;-62
2022/03/29 05:31:32;;;;;;;53.47;36.27;;;6.90;99.90;;;;;;4942858;28;20222;-62
2022/03/29 05:33:59;;;;;;;60.17;36.63;;;6.90;99.90;;;;;;4962537;28;20289;-63
2022/03/29 05:36:26;;;;;;;54.53;36.10;;;6.90;99.90;;;;;;4972988;28;20654;-63
2022/03/29 05:38:53;;;;;;;52.23;34.83;;;7.00;99.90;;;;;;4955660;28;22015;-63
2022/03/29 05:41:20;;;;;;;50.10;34.07;;;6.90;99.90;;;;;;4977003;28;20285;-63
2022/03/29 05:43:49;;;;;;;49.90;36.07;;;6.80;99.90;;;;;;4979896;28;20225;-62
2022/03/29 05:49:09;;;;;;;53.07;35.20;;;6.80;99.90;;;;;;4978489;28;20197;-63
2022/03/29 05:51:36;;;;;;;49.27;35.53;;;6.70;99.90;;;;;;4980271;28;20680;-63
2022/03/29 05:54:06;;;;;;;52.43;35.40;;;6.70;99.90;;;;;;4970554;28;20654;-64
2022/03/29 05:56:36;;;;;;;52.13;36.50;;;6.70;99.90;;;;;;4980468;28;20268;-63
2022/03/29 05:59:02;;;;;;;60.90;36.03;;;6.80;99.90;;;;;;4977239;28;20245;-62
2022/03/29 06:01:32;;;;;;;56.17;36.27;;;7.00;99.90;;;;;;4977576;28;20273;-62
2022/03/29 06:03:59;;;;;;;57.13;36.97;;;7.00;99.90;;;;;;4954483;28;20218;-66
2022/03/29 06:06:26;;;;;;;61.43;38.30;;;7.10;99.90;;;;;;4964447;28;20217;-66
2022/03/29 06:08:53;;;;;;;56.63;37.63;;;7.00;99.90;;;;;;4966296;28;20273;-66
2022/03/29 06:11:22;;;;;;;62.50;40.43;;;7.20;99.90;;;;;;4966270;28;20197;-67
2022/03/29 06:13:55;;;;;;;58.70;37.83;;;7.20;49.80;;;;;;4983952;28;20225;-67
2022/03/29 06:16:24;;;;;;;61.00;39.63;;;7.30;99.90;;;;;;4975886;28;20337;-66
2022/03/29 06:18:51;;;;;;;64.80;39.57;;;7.30;16.20;;;;;;4953358;28;20206;-67
2022/03/29 06:21:18;;;;;;;63.47;38.63;;;7.20;99.90;;;;;;4967364;28;20783;-67
2022/03/29 06:23:45;;;;;;;66.57;40.17;;;7.20;99.90;;;;;;4967501;28;20249;-67
2022/03/29 06:26:16;;;;;;;66.43;39.87;;;7.20;99.90;;;;;;4984221;28;20228;-67
2022/03/29 06:28:43;;;;;;;64.30;40.93;;;7.10;99.90;;;;;;4984854;28;20200;-67
2022/03/29 06:31:10;;;;;;;61.43;40.37;;;7.10;99.90;;;;;;4968619;28;20198;-67
2022/03/29 06:33:37;;;;;;;62.60;39.97;;;7.10;1.00;;;;;;4954926;28;20713;-66
2022/03/29 06:36:04;;;;;;;58.63;38.90;;;7.10;1.00;;;;;;4966961;28;20601;-67
2022/03/29 06:38:33;;;;;;;66.47;39.10;;;7.00;1.00;;;;;;4969292;28;20205;-67
2022/03/29 06:41:03;;;;;;;65.40;38.83;;;6.90;1.00;;;;;;4957238;28;20372;-67
2022/03/29 06:43:30;;;;;;;59.93;39.10;;;7.00;1.00;;;;;;4947684;28;20205;-66
2022/03/29 06:46:01;;;;;;;61.27;38.97;;;7.00;1.00;;;;;;4951368;28;20194;-67
2022/03/29 06:48:28;;;;;;;61.97;39.37;;;7.00;1.00;;;;;;4982585;28;20205;-67
2022/03/29 06:50:58;;;;;;;64.70;39.47;;;7.00;1.00;;;;;;4968656;28;20275;-66
2022/03/29 06:53:25;;;;;;;61.50;40.67;;;7.00;1.00;;;;;;4984427;28;20211;-66
2022/03/29 06:55:52;;;;;;;59.97;38.50;;;7.10;1.00;;;;;;4953223;28;20332;-67
2022/03/29 06:58:21;;;;;;;64.70;38.60;;;7.00;1.00;;;;;;4985720;28;20237;-67
2022/03/29 07:00:48;;;;;;;64.80;40.50;;;6.90;1.00;;;;;;4969125;28;20881;-67
2022/03/29 07:03:16;;;;;;;68.07;40.53;;;6.90;1.00;;;;;;4984096;28;20214;-66
2022/03/29 07:05:48;;;;;;;65.57;40.10;;;7.00;1.00;;;;;;4950867;28;20198;-67
2022/03/29 07:08:18;;;;;;;64.83;40.10;;;7.00;1.00;;;;;;4964505;28;20225;-67
2022/03/29 07:13:34;;;;;;;61.80;39.03;;;7.10;1.00;;;;;;4981953;28;20225;-67
2022/03/29 07:16:01;;;;;;;67.73;40.73;;;7.20;1.00;;;;;;4966626;28;20221;-67
2022/03/29 07:18:32;;;;;;;70.67;42.20;;;7.20;1.00;;;;;;4980073;28;20241;-66
2022/03/29 07:21:01;;;;;;;77.33;41.97;;;7.30;1.00;;;;;;4978490;28;20236;-67
2022/03/29 07:23:30;;;;;;;72.33;43.00;;;7.30;1.00;;;;;;4986590;28;20213;-68
2022/03/29 07:25:57;;;;;;;72.07;40.37;;;7.40;1.00;;;;;;4967197;28;20201;-67
2022/03/29 07:28:24;;;;;;;77.40;43.03;;;7.60;99.90;;;;;;4951485;28;20287;-67
2022/03/29 07:30:52;;;;;;;87.03;44.60;;;7.60;99.90;;;;;;4966725;28;20217;-66
2022/03/29 07:33:19;;;;;;;92.43;45.27;;;7.50;99.90;;;;;;4977315;28;20723;-66
2022/03/29 07:35:49;;;;;;;93.63;44.13;;;7.30;1.00;;;;;;4983685;28;20205;-67
2022/03/29 07:38:16;;;;;;;85.30;42.70;;;7.40;1.00;;;;;;4962563;28;20709;-66
2022/03/29 07:40:43;;;;;;;80.23;40.13;;;7.40;99.90;;;;;;4982181;28;20320;-66
2022/03/29 07:43:12;;;;;;;82.17;40.07;;;7.20;1.00;;;;;;4949652;28;20604;-66
2022/03/29 07:45:39;;;;;;;86.53;44.27;;;7.10;1.00;;;;;;4964849;28;20202;-66
2022/03/29 07:48:07;;;;;;;84.63;42.27;;;7.20;1.00;;;;;;4994969;28;20545;-67
2022/03/29 07:50:59;;;;;;;77.43;39.20;;;7.20;1.00;;;;;;4978268;28;20207;-68
2022/03/29 07:53:27;;;;;;;76.93;40.17;;;7.30;1.00;;;;;;4949171;28;20252;-67
2022/03/29 07:55:54;;;;;;;70.53;39.87;;;7.20;1.00;;;;;;4975496;28;20288;-67
2022/03/29 07:58:21;;;;;;;71.53;40.80;;;7.30;1.00;;;;;;4966930;28;20641;-67
2022/03/29 08:00:54;;;;;;;63.90;38.03;;;7.30;1.00;;;;;;4948908;28;20194;-69
2022/03/29 08:03:22;;;;;;;71.17;38.97;;;7.30;99.90;;;;;;4949764;28;20264;-69
2022/03/29 08:05:50;;;;;;;72.93;38.87;;;7.30;1.00;;;;;;4980698;28;20921;-69
2022/03/29 08:08:17;;;;;;;69.73;38.23;;;7.40;99.90;;;;;;4959479;28;20201;-69
2022/03/29 08:10:48;;;;;;;68.80;40.27;;;7.40;99.90;;;;;;4976231;28;20557;-67
2022/03/29 08:13:18;;;;;;;71.50;39.30;;;7.60;99.90;;;;;;4949851;28;20296;-69
2022/03/29 08:15:49;;;;;;;68.87;38.37;;;7.60;93.30;;;;;;4968424;28;21473;-69
2022/03/29 08:18:17;;;;;;;66.87;38.90;;;7.60;94.70;;;;;;4951350;28;20327;-67
2022/03/29 08:20:47;;;;;;;59.83;35.50;;;7.80;80.80;;;;;;4956946;28;20206;-67
2022/03/29 08:23:14;;;;;;;67.40;37.13;;;7.60;1.00;;;;;;4964804;28;20791;-69
2022/03/29 08:25:44;;;;;;;68.17;39.77;;;7.50;28.90;;;;;;4966865;28;21001;-69
2022/03/29 08:28:16;;;;;;;55.57;35.60;;;7.70;57.40;;;;;;4964838;28;20853;-67
2022/03/29 08:30:47;;;;;;;67.27;37.63;;;7.80;1.00;;;;;;4966045;28;20538;-68
2022/03/29 08:33:16;;;;;;;58.37;35.03;;;7.90;1.00;;;;;;4961895;28;20280;-68
2022/03/29 08:35:45;;;;;;;53.77;33.20;;;8.10;1.00;;;;;;4955073;28;20229;-69
2022/03/29 08:38:12;;;;;;;50.73;32.53;;;8.30;99.90;;;;;;4968994;28;20292;-68
2022/03/29 08:40:57;;;;;;;58.73;33.27;;;8.20;99.90;;;;;;4970734;28;20238;-70
2022/03/29 08:43:30;;;;;;;56.70;35.80;;;8.00;1.00;;;;;;4964054;28;20229;-69
2022/03/29 08:46:02;;;;;;;49.10;33.40;;;8.00;1.00;;;;;;4944530;28;20220;-68
2022/03/29 08:48:33;;;;;;;47.40;32.07;;;8.20;99.90;;;;;;4976068;28;20230;-68
2022/03/29 08:51:04;;;;;;;47.27;32.57;;;8.20;99.90;;;;;;4959250;28;20198;-68
2022/03/29 08:53:53;;;;;;;54.93;35.60;;;8.40;99.90;;;;;;4954441;28;20712;-69
2022/03/29 08:56:23;;;;;;;53.97;35.13;;;8.70;99.90;;;;;;4944450;28;20194;-70
2022/03/29 08:58:51;;;;;;;58.87;35.20;;;8.70;99.90;;;;;;4959590;28;20245;-70
2022/03/29 09:01:19;;;;;;;62.33;34.83;;;8.60;86.00;;;;;;4963146;28;20206;-70
2022/03/29 09:04:06;;;;;;;56.67;34.57;;;8.70;96.60;;;;;;4960504;28;20190;-69
2022/03/29 09:06:48;;;;;;;55.73;33.57;;;9.00;10.30;;;;;;4958322;28;20208;-68
2022/03/29 09:09:33;;;;;;;56.00;33.47;;;9.10;1.00;;;;;;4970521;28;20202;-68
2022/03/29 09:12:13;;;;;;;56.03;33.63;;;9.10;1.00;;;;;;4970676;28;20214;-70
2022/03/29 09:14:59;;;;;;;51.97;33.43;;;9.00;1.00;;;;;;4970762;28;20748;-68
2022/03/29 09:17:35;;;;;;;51.07;33.80;;;9.00;1.00;;;;;;4962781;28;20230;-68
2022/03/29 09:20:24;;;;;;;54.47;33.47;;;9.10;1.00;;;;;;4973063;28;20223;-68
2022/03/29 09:22:53;;;;;;;53.83;33.80;;;9.00;1.00;;;;;;4959097;28;20713;-68
2022/03/29 09:25:36;;;;;;;48.93;31.80;;;8.80;1.00;;;;;;4956176;28;20325;-70
2022/03/29 09:28:10;;;;;;;51.77;32.60;;;8.90;1.00;;;;;;4973839;28;20202;-68
2022/03/29 09:30:41;;;;;;;60.43;35.27;;;9.00;1.00;;;;;;4947437;28;20202;-68
2022/03/29 09:33:14;;;;;;;56.43;33.47;;;8.90;1.00;;;;;;4959218;28;20725;-68
2022/03/29 09:35:59;;;;;;;58.03;35.20;;;8.60;1.00;;;;;;4962640;28;20229;-68
2022/03/29 09:38:39;;;;;;;53.53;33.80;;;8.70;1.00;;;;;;4957957;28;20849;-68
2022/03/29 09:41:26;;;;;;;56.90;34.47;;;8.80;1.00;;;;;;4960085;28;20273;-70
2022/03/29 09:44:05;;;;;;;61.30;35.63;;;8.60;1.00;;;;;;4965412;28;20302;-70
2022/03/29 09:46:54;;;;;;;55.83;34.53;;;8.90;1.00;;;;;;4959566;28;20194;-70
2022/03/29 09:49:26;;;;;;;54.33;34.03;;;9.40;1.00;;;;;;4948380;28;20211;-67
2022/03/29 09:52:14;;;;;;;55.50;34.03;;;9.20;1.00;;;;;;4966253;28;20333;-70
2022/03/29 09:54:42;;;;;;;55.90;35.27;;;9.30;1.00;;;;;;4966505;28;20233;-70
2022/03/29 09:57:09;;;;;;;56.50;32.90;;;9.50;1.00;;;;;;4967453;28;20297;-68
2022/03/29 09:59:48;;;;;;;57.87;35.00;;;9.50;1.00;;;;;;4975413;28;20199;-70
2022/03/29 10:02:15;;;;;;;56.33;34.80;;;9.50;1.00;;;;;;4966088;28;20301;-70
2022/03/29 10:04:45;;;;;;;54.07;34.20;;;9.80;99.90;;;;;;4973362;28;20915;-68
2022/03/29 10:07:17;;;;;;;56.53;35.67;;;9.90;99.90;;;;;;4961860;28;20194;-68
2022/03/29 10:09:44;;;;;;;60.67;36.27;;;9.70;99.90;;;;;;4954355;28;20304;-70
2022/03/29 10:12:13;;;;;;;56.87;33.73;;;9.40;99.90;;;;;;4960855;28;20568;-68
2022/03/29 10:14:44;;;;;;;55.03;33.23;;;9.30;1.00;;;;;;4961362;28;20206;-70
2022/03/29 10:17:16;;;;;;;51.13;34.67;;;9.60;99.90;;;;;;4948176;28;20350;-68
2022/03/29 10:19:44;;;;;;;54.33;33.50;;;10.10;99.90;;;;;;4967050;28;20203;-70
2022/03/29 10:22:13;;;;;;;55.53;33.90;;;9.80;99.90;;;;;;4968837;28;20324;-68
2022/03/29 10:24:40;;;;;;;51.57;32.23;;;9.90;99.90;;;;;;4964723;28;20685;-68
2022/03/29 10:27:09;;;;;;;47.30;31.93;;;10.20;99.90;;;;;;4947757;28;20233;-70
2022/03/29 10:29:41;;;;;;;51.67;32.13;;;10.20;97.40;;;;;;4966251;28;20277;-69
2022/03/29 10:32:08;;;;;;;50.07;33.07;;;10.50;28.90;;;;;;4966243;28;20337;-68
2022/03/29 10:34:40;;;;;;;48.97;30.70;;;11.00;1.00;;;;;;4972945;28;20230;-68
2022/03/29 10:37:10;;;;;;;43.23;29.50;;;12.50;1.00;;;;;;4970181;28;20255;-69
2022/03/29 10:39:42;;;;;;;43.03;30.00;;;13.90;16.50;;;;;;4968804;28;20257;-68
2022/03/29 10:42:27;;;;;;;39.57;27.83;;;14.80;1.00;;;;;;4951532;28;20320;-72
2022/03/29 10:45:19;;;;;;;35.10;27.73;;;16.10;1.00;;;;;;4962194;28;20198;-69
2022/03/29 10:48:02;;;;;;;42.20;30.50;;;16.20;1.00;;;;;;4972713;28;20210;-68
2022/03/29 10:50:51;;;;;;;40.90;31.10;;;13.90;1.00;;;;;;4965557;28;20202;-66
2022/03/29 10:53:28;;;;;;;45.10;31.63;;;13.60;1.00;;;;;;4944846;28;20207;-68
2022/03/29 10:56:11;;;;;;;45.73;32.40;;;13.40;46.70;;;;;;4980507;28;20241;-67
2022/03/29 10:59:02;;;;;;;41.57;31.10;;;14.40;1.00;;;;;;4963691;28;20265;-68
2022/03/29 11:01:33;;;;;;;41.90;31.73;;;15.10;1.00;;;;;;4966091;28;20186;-68
2022/03/29 11:04:16;;;;;;;40.23;29.70;;;14.50;1.00;;;;;;4963100;28;20659;-67
2022/03/29 11:07:06;;;;;;;39.90;29.90;;;14.30;1.00;;;;;;4958217;28;20207;-69
2022/03/29 11:09:36;;;;;;;38.53;30.00;;;15.40;1.00;;;;;;4963363;28;20194;-66
2022/03/29 11:12:04;;;;;;;45.07;30.27;;;15.20;1.00;;;;;;4963752;28;20294;-68
2022/03/29 11:14:38;;;;;;;34.45;28.48;;;15.50;1.00;;;;;;4962517;28;20314;-68
2022/03/29 11:17:11;;;;;;;39.65;30.13;;;16.70;1.00;;;;;;4972835;28;20206;-68
2022/03/29 11:19:46;;;;;;;39.60;28.73;;;17.40;1.00;;;;;;4961989;28;20222;-68
2022/03/29 11:22:25;;;;;;;37.30;29.30;;;17.50;1.00;;;;;;4962442;28;20225;-68
2022/03/29 11:24:59;;;;;;;42.70;33.20;;;18.00;99.90;;;;;;4962071;28;20205;-68
2022/03/29 11:27:33;;;;;;;50.17;36.90;;;18.00;99.90;;;;;;4967011;28;20616;-69
2022/03/29 11:30:03;;;;;;;48.50;35.78;;;17.00;99.90;;;;;;4965967;28;20366;-67
2022/03/29 11:32:33;;;;;;;42.80;33.65;;;16.50;1.00;;;;;;4961303;28;20242;-68
2022/03/29 11:35:07;;;;;;;42.47;32.38;;;15.50;1.00;;;;;;4970893;28;20199;-69
2022/03/29 11:37:41;;;;;;;44.03;32.97;;;14.60;1.00;;;;;;4961405;28;20202;-69
2022/03/29 11:40:17;;;;;;;46.23;34.90;;;14.40;1.00;;;;;;4947399;28;20226;-67
2022/03/29 11:42:50;;;;;;;39.10;29.30;;;14.90;1.00;;;;;;4956446;28;20284;-70
2022/03/29 11:45:25;;;;;;;35.87;29.47;;;15.50;1.00;;;;;;4947578;28;20210;-68
2022/03/29 11:48:04;;;;;;;34.03;27.43;;;15.60;1.00;;;;;;4952047;28;20771;-67
2022/03/29 11:50:43;;;;;;;38.53;27.80;;;15.10;1.00;;;;;;4977853;28;20677;-70
2022/03/29 11:53:22;;;;;;;37.47;27.93;;;14.90;1.00;;;;;;4963596;28;20205;-68
2022/03/29 11:56:00;;;;;;;33.90;27.47;;;14.30;1.00;;;;;;4948498;28;20209;-69
2022/03/29 11:58:32;;;;;;;33.03;27.17;;;14.60;1.00;;;;;;4960286;28;20222;-69
2022/03/29 12:01:21;;;;;;;31.53;26.50;;;14.80;1.00;;;;;;4974803;28;20198;-69
2022/03/29 12:03:54;;;;;;;31.07;25.03;;;14.80;1.00;;;;;;4978198;28;20748;-70
2022/03/29 12:06:29;;;;;;;32.33;24.67;;;14.90;1.00;;;;;;4963089;28;20201;-69
2022/03/29 12:08:58;;;;;;;31.27;24.30;;;15.30;1.00;;;;;;4976657;28;20899;-69
2022/03/29 12:11:33;;;;;;;32.37;24.50;;;15.20;1.00;;;;;;4960098;28;20206;-67
2022/03/29 12:14:07;;;;;;;25.40;22.30;;;15.40;1.00;;;;;;4964199;28;20836;-70
2022/03/29 12:16:49;;;;;;;29.60;23.80;;;15.60;1.00;;;;;;4959744;28;20202;-67
2022/03/29 12:19:23;;;;;;;31.50;25.27;;;15.60;1.00;;;;;;4963184;28;20241;-69
2022/03/29 12:21:56;;;;;;;33.57;25.10;;;14.30;1.00;;;;;;4962012;28;20301;-67
2022/03/29 12:24:34;;;;;;;30.43;23.23;;;14.10;1.00;;;;;;4963244;28;20688;-69
2022/03/29 12:27:06;;;;;;;28.90;24.27;;;14.90;1.00;;;;;;4959500;28;20198;-67
2022/03/29 12:29:44;;;;;;;35.33;23.43;;;15.60;1.00;;;;;;4977996;28;20203;-69
2022/03/29 12:32:13;;;;;;;30.07;24.27;;;15.40;1.00;;;;;;4941541;28;20639;-68
2022/03/29 12:34:58;;;;;;;29.43;22.53;;;15.60;1.00;;;;;;4960459;28;20292;-68
2022/03/29 12:37:27;;;;;;;30.97;22.90;;;16.00;1.00;;;;;;4975181;28;20785;-67
2022/03/29 12:39:57;;;;;;;32.47;23.53;;;16.30;1.00;;;;;;4960340;28;20792;-67
2022/03/29 12:42:33;;;;;;;31.57;23.50;;;16.20;1.00;;;;;;4996313;28;20270;-67
2022/03/29 12:45:03;;;;;;;27.10;22.47;;;16.20;1.00;;;;;;4963371;28;20190;-68
2022/03/29 12:47:31;;;;;;;28.80;24.07;;;16.40;1.00;;;;;;4990510;28;20661;-67
2022/03/29 12:50:01;;;;;;;27.40;22.13;;;16.60;1.00;;;;;;4968517;28;20206;-69
2022/03/29 12:52:29;;;;;;;29.57;23.57;;;16.00;1.00;;;;;;4961667;28;20263;-70
2022/03/29 12:55:00;;;;;;;33.77;23.73;;;15.80;1.00;;;;;;4943672;28;20260;-68
2022/03/29 12:57:34;;;;;;;31.23;24.93;;;15.80;1.00;;;;;;4965325;28;20756;-67
2022/03/29 13:00:09;;;;;;;27.43;22.13;;;15.40;1.00;;;;;;4947647;28;20276;-67
2022/03/29 13:02:43;;;;;;;25.60;21.67;;;15.60;1.00;;;;;;4964289;28;20688;-68
2022/03/29 13:05:11;;;;;;;29.80;24.37;;;15.80;1.00;;;;;;4959765;28;20247;-70
2022/03/29 13:07:50;;;;;;;32.70;24.30;;;15.70;1.00;;;;;;4969063;28;20202;-69